Time;durP1;ratioP1;P1;durP2;ratioP2;P2;SDS_P1;SDS_P2;PMS_P1;PMS_P2;Temp;Humidity;BMP_temperature;BMP_pressure;BME280_temperature;BME280_humidity;BME280_pressure;Samples;Min_cycle;Max_cycle;Signal;HPM_P1;HPM_P2
2022/05/23 00:01:59;;;;;;;1.77;1.67;;;;;;;13.24;75.68;98391.59;1719527;83;21234;-71
2022/05/23 00:04:25;;;;;;;1.62;1.50;;;;;;;13.24;75.68;98397.44;1719480;83;20970;-70
2022/05/23 00:06:52;;;;;;;1.50;1.40;;;;;;;13.23;75.64;98395.28;1727652;82;21493;-71
2022/05/23 00:09:20;;;;;;;1.50;1.40;;;;;;;13.23;75.62;98401.95;1719489;83;20920;-70
2022/05/23 00:11:47;;;;;;;1.37;1.27;;;;;;;13.23;75.61;98398.46;1719743;83;21493;-70
2022/05/23 00:14:15;;;;;;;1.85;1.75;;;;;;;13.21;75.70;98392.52;1727637;82;21198;-70
2022/05/23 00:16:45;;;;;;;2.17;1.87;;;;;;;13.19;75.76;98395.39;1719721;83;20935;-70
2022/05/23 00:19:12;;;;;;;1.60;1.50;;;;;;;13.17;75.89;98398.80;1719484;83;20998;-70
2022/05/23 00:21:41;;;;;;;1.98;1.87;;;;;;;13.19;75.97;98396.72;1709707;83;21541;-72
2022/05/23 00:24:09;;;;;;;1.70;1.52;;;;;;;13.18;76.04;98396.44;1702949;84;21015;-73
2022/05/23 00:26:36;;;;;;;1.65;1.52;;;;;;;13.18;76.10;98393.77;1703158;84;21566;-70
2022/05/23 00:29:03;;;;;;;2.02;1.92;;;;;;;13.16;76.17;98397.69;1702873;84;20999;-70
2022/05/23 00:31:30;;;;;;;1.70;1.60;;;;;;;13.16;76.23;98401.18;1702918;84;21083;-70
2022/05/23 00:36:41;;;;;;;1.32;1.22;;;;;;;13.16;76.23;98392.34;1703083;84;21008;-71
2022/05/23 00:39:08;;;;;;;1.87;1.75;;;;;;;13.16;76.22;98397.69;1702957;84;21246;-72
2022/05/23 00:44:32;;;;;;;1.60;1.50;;;;;;;13.14;76.30;98394.41;1694408;84;21038;-71
2022/05/23 00:47:06;;;;;;;1.10;1.00;;;;;;;13.14;76.38;98393.08;1699799;84;21026;-72
2022/05/23 00:49:35;;;;;;;1.60;1.50;;;;;;;13.11;76.53;98394.33;1684864;84;21087;-74
2022/05/23 00:52:05;;;;;;;1.40;1.30;;;;;;;13.15;76.50;98393.36;1698821;84;21245;-71
2022/05/23 00:54:37;;;;;;;1.22;1.12;;;;;;;13.14;76.48;98398.42;1700417;84;20908;-70
2022/05/23 00:57:05;;;;;;;2.10;1.25;;;;;;;13.13;76.53;98398.93;1703031;84;20955;-71
2022/05/23 00:59:33;;;;;;;3.05;1.42;;;;;;;13.15;76.51;98398.70;1702841;84;21513;-72
2022/05/23 01:02:01;;;;;;;1.40;1.30;;;;;;;13.15;76.52;98399.53;1702908;84;21007;-71
2022/05/23 01:04:30;;;;;;;2.62;1.40;;;;;;;13.15;76.57;98400.04;1721720;83;21180;-72
2022/05/23 01:06:57;;;;;;;1.42;1.15;;;;;;;13.14;76.71;98399.21;1703499;82;20975;-73
2022/05/23 01:09:26;;;;;;;1.40;1.30;;;;;;;13.14;76.77;98402.42;1725791;83;21049;-70
2022/05/23 01:11:53;;;;;;;2.30;1.37;;;;;;;13.14;76.76;98405.09;1703937;82;20965;-70
2022/05/23 01:14:21;;;;;;;1.92;1.70;;;;;;;13.12;76.85;98411.14;1720853;83;21512;-70
2022/05/23 01:16:48;;;;;;;2.05;1.85;;;;;;;13.12;76.92;98404.47;1685429;84;21172;-73
2022/05/23 01:19:14;;;;;;;2.58;1.90;;;;;;;13.11;76.92;98405.00;1720285;83;21531;-70
2022/05/23 01:21:59;;;;;;;2.42;1.85;;;;;;;13.12;77.12;98399.13;1721662;83;21060;-70
2022/05/23 01:25:04;;;;;;;3.72;2.15;;;;;;;13.13;77.16;98405.61;1720005;83;20882;-71
2022/05/23 01:27:31;;;;;;;2.30;1.82;;;;;;;13.16;77.18;98401.69;1722850;83;20977;-71
2022/05/23 01:29:58;;;;;;;2.37;1.77;;;;;;;13.15;77.29;98402.70;1723011;83;21292;-70
2022/05/23 01:32:25;;;;;;;3.80;2.05;;;;;;;13.14;77.55;98401.89;1722699;83;20925;-70
2022/05/23 01:34:52;;;;;;;2.70;2.00;;;;;;;13.16;77.63;98412.38;1696321;83;20937;-71
2022/05/23 01:37:20;;;;;;;3.22;2.35;;;;;;;13.17;77.98;98412.66;1719580;83;21555;-73
2022/05/23 01:39:54;;;;;;;3.20;2.90;;;;;;;13.19;78.00;98413.28;1716139;83;21001;-71
2022/05/23 01:42:23;;;;;;;4.47;2.87;;;;;;;13.18;78.53;98413.80;1715124;83;21888;-70
2022/05/23 01:44:49;;;;;;;2.92;2.10;;;;;;;13.16;78.42;98420.38;1718658;82;20990;-72
2022/05/23 01:47:19;;;;;;;2.67;2.05;;;;;;;13.16;78.89;98416.37;1717603;82;20915;-73
2022/05/23 01:49:54;;;;;;;3.77;2.22;;;;;;;13.17;78.57;98413.48;1716783;83;20887;-70
2022/05/23 01:52:41;;;;;;;3.37;2.45;;;;;;;13.16;78.37;98410.52;1717291;82;21485;-71
2022/05/23 01:55:10;;;;;;;3.50;2.35;;;;;;;13.15;78.43;98408.05;1717897;83;21792;-71
2022/05/23 01:57:37;;;;;;;3.12;2.80;;;;;;;13.15;78.68;98416.06;1717304;83;20923;-73
2022/05/23 02:02:50;;;;;;;;;;;;;;;13.09;78.81;98411.59;1720460;83;20958;-71
2022/05/23 02:05:18;;;;;;;3.45;2.12;;;;;;;13.08;78.79;98417.44;1718663;83;20173;-73
2022/05/23 02:07:45;;;;;;;2.90;2.45;;;;;;;13.11;78.87;98407.67;1717840;83;21131;-73
2022/05/23 02:10:12;;;;;;;4.15;2.95;;;;;;;13.15;78.95;98414.22;1718976;83;22501;-73
2022/05/23 02:12:42;;;;;;;4.33;3.05;;;;;;;13.19;79.16;98414.08;1722540;83;21110;-71
2022/05/23 02:15:10;;;;;;;4.12;2.92;;;;;;;13.21;79.05;98412.05;1722643;83;21499;-73
2022/05/23 02:17:59;;;;;;;4.10;3.40;;;;;;;13.21;79.11;98416.05;1718224;83;20906;-70
2022/05/23 02:20:27;;;;;;;3.35;2.70;;;;;;;13.26;78.90;98416.23;1722695;83;21138;-71
2022/05/23 02:22:54;;;;;;;3.45;2.75;;;;;;;13.27;78.95;98413.84;1722503;83;20886;-71
2022/05/23 02:25:23;;;;;;;3.80;3.10;;;;;;;13.29;78.69;98410.98;1722835;83;21492;-70
2022/05/23 02:27:50;;;;;;;3.10;2.67;;;;;;;13.31;79.41;98414.25;1722825;83;21106;-70
2022/05/23 02:30:19;;;;;;;5.40;3.10;;;;;;;13.30;79.74;98409.92;1720748;83;20946;-71
2022/05/23 02:32:46;;;;;;;5.17;3.02;;;;;;;13.29;79.00;98422.48;1717303;83;21140;-71
2022/05/23 02:35:15;;;;;;;4.83;3.75;;;;;;;13.29;78.85;98422.48;1717279;83;20970;-70
2022/05/23 02:37:42;;;;;;;4.55;3.17;;;;;;;13.31;78.79;98420.41;1718666;83;20957;-71
2022/05/23 02:40:12;;;;;;;4.22;3.15;;;;;;;13.33;78.89;98425.02;1717244;82;20950;-72
2022/05/23 02:42:40;;;;;;;5.87;3.33;;;;;;;13.36;78.86;98425.94;1690702;83;21065;-71
2022/05/23 02:45:09;;;;;;;3.47;2.70;;;;;;;13.38;78.69;98429.20;1718708;82;21229;-70
2022/05/23 02:47:37;;;;;;;3.25;2.45;;;;;;;13.38;78.96;98427.05;1717063;83;20966;-70
2022/05/23 02:50:06;;;;;;;2.20;1.77;;;;;;;13.40;78.78;98425.00;1718590;83;20938;-73
2022/05/23 02:52:35;;;;;;;2.10;1.42;;;;;;;13.41;78.70;98427.45;1714470;83;20989;-73
2022/05/23 02:55:06;;;;;;;1.40;1.30;;;;;;;13.44;78.55;98431.55;1717655;83;20938;-71
2022/05/23 02:57:33;;;;;;;1.25;1.15;;;;;;;13.39;78.42;98433.53;1722873;83;21122;-71
2022/05/23 03:00:01;;;;;;;1.25;1.10;;;;;;;13.38;78.78;98432.38;1722552;83;21527;-70
2022/05/23 03:05:12;;;;;;;0.72;0.72;;;;;;;13.39;79.09;98434.86;1719651;83;20989;-70
2022/05/23 03:07:39;;;;;;;0.90;0.90;;;;;;;13.40;79.77;98434.35;1722810;83;20981;-73
2022/05/23 03:10:06;;;;;;;0.88;0.80;;;;;;;13.40;79.94;98441.03;1722646;83;21151;-71
2022/05/23 03:12:34;;;;;;;1.60;0.80;;;;;;;13.41;79.66;98438.13;1722671;83;20942;-70
2022/05/23 03:15:03;;;;;;;0.70;0.70;;;;;;;13.42;79.50;98442.97;1723007;83;20949;-70
2022/05/23 03:17:29;;;;;;;0.78;0.78;;;;;;;13.43;79.42;98444.08;1722691;83;20981;-70
2022/05/23 03:19:56;;;;;;;0.60;0.60;;;;;;;13.46;79.39;98445.50;1722651;83;20918;-72
2022/05/23 03:27:54;;;;;;;0.60;0.60;;;;;;;13.53;78.73;98451.11;1717520;83;20969;-71
2022/05/23 03:30:22;;;;;;;0.65;0.65;;;;;;;13.52;78.60;98448.66;1716609;83;20946;-71
2022/05/23 03:32:54;;;;;;;0.72;0.72;;;;;;;13.54;78.50;98456.77;1717406;83;20962;-71
2022/05/23 03:35:21;;;;;;;0.68;0.55;;;;;;;13.55;78.34;98454.41;1717485;83;21963;-69
2022/05/23 03:37:47;;;;;;;0.80;0.80;;;;;;;13.58;78.12;98457.97;1717442;83;20926;-73
2022/05/23 03:40:14;;;;;;;0.78;0.78;;;;;;;13.58;77.88;98463.31;1717377;83;21433;-71
2022/05/23 03:42:43;;;;;;;1.05;0.95;;;;;;;13.58;77.83;98459.30;1715923;83;21706;-71
2022/05/23 03:45:10;;;;;;;0.82;0.82;;;;;;;13.59;77.88;98468.14;1713185;83;21041;-71
2022/05/23 03:47:41;;;;;;;0.90;0.90;;;;;;;13.60;77.77;98471.13;1711809;83;21213;-74
2022/05/23 03:50:10;;;;;;;0.82;0.82;;;;;;;13.56;77.57;98469.39;1716839;83;20969;-72
2022/05/23 03:52:38;;;;;;;1.10;1.10;;;;;;;13.50;77.61;98476.91;1717434;83;21000;-71
2022/05/23 03:55:06;;;;;;;1.05;1.02;;;;;;;13.45;77.68;98480.74;1717322;83;20855;-72
2022/05/23 03:57:32;;;;;;;3.30;2.75;;;;;;;13.43;77.74;98481.48;1689046;83;20950;-70
2022/05/23 03:59:59;;;;;;;3.35;3.05;;;;;;;13.39;77.83;98482.13;1717599;83;21247;-70
2022/05/23 04:02:27;;;;;;;5.15;4.75;;;;;;;13.34;78.00;98487.28;1717247;83;20886;-73
2022/05/23 04:04:54;;;;;;;3.58;3.27;;;;;;;13.35;78.18;98485.72;1717621;83;20987;-72
2022/05/23 04:07:27;;;;;;;2.25;2.08;;;;;;;13.38;78.29;98487.15;1698348;83;21124;-70
2022/05/23 04:09:58;;;;;;;2.40;2.20;;;;;;;13.39;78.36;98487.47;1712000;83;21611;-72
2022/05/23 04:12:26;;;;;;;2.62;2.20;;;;;;;13.44;78.43;98483.13;1716706;83;21806;-70
2022/05/23 04:14:52;;;;;;;3.40;2.20;;;;;;;13.47;78.31;98488.05;1712603;83;21069;-72
2022/05/23 04:17:22;;;;;;;2.33;2.05;;;;;;;13.49;78.35;98489.16;1713825;83;21006;-68
2022/05/23 04:19:49;;;;;;;3.50;2.55;;;;;;;13.53;78.36;98480.50;1715130;83;21464;-70
2022/05/23 04:22:17;;;;;;;2.42;2.30;;;;;;;13.60;78.45;98489.33;1716919;83;21029;-69
2022/05/23 04:24:46;;;;;;;2.10;1.90;;;;;;;13.67;78.32;98491.13;1724385;83;21319;-69
2022/05/23 04:27:12;;;;;;;2.62;2.27;;;;;;;13.74;78.31;98486.05;1725328;83;21004;-69
2022/05/23 04:29:41;;;;;;;2.62;2.47;;;;;;;13.83;78.13;98491.45;1726033;83;21467;-71
2022/05/23 04:35:15;;;;;;;3.08;2.77;;;;;;;14.03;77.55;98487.31;1726054;83;20910;-70
2022/05/23 04:37:46;;;;;;;3.55;2.62;;;;;;;14.13;77.25;98489.02;1725539;83;21844;-67
2022/05/23 04:40:14;;;;;;;3.15;2.85;;;;;;;14.24;76.89;98485.62;1723483;83;20948;-70
2022/05/23 04:42:41;;;;;;;4.03;3.35;;;;;;;14.36;76.54;98487.95;1725874;83;20930;-70
2022/05/23 04:45:10;;;;;;;4.58;3.60;;;;;;;14.47;76.11;98489.89;1721640;83;21019;-74
2022/05/23 04:50:24;;;;;;;3.52;3.22;;;;;;;14.72;75.15;98498.75;1699444;84;21183;-73
2022/05/23 04:52:54;;;;;;;4.75;3.45;;;;;;;14.72;74.30;98501.42;1699278;84;21057;-68
2022/05/23 04:55:23;;;;;;;8.03;5.55;;;;;;;14.69;73.97;98500.52;1699710;84;20979;-69
2022/05/23 04:57:49;;;;;;;5.08;4.58;;;;;;;14.64;73.42;98507.56;1710451;84;20972;-73
2022/05/23 05:00:19;;;;;;;5.20;4.05;;;;;;;14.58;73.21;98511.94;1706552;83;21540;-70
2022/05/23 05:02:48;;;;;;;3.95;3.65;;;;;;;14.60;73.26;98519.22;1704290;83;21792;-73
2022/05/23 05:05:16;;;;;;;5.85;3.67;;;;;;;14.67;73.28;98515.98;1708704;84;20911;-71
2022/05/23 05:07:50;;;;;;;3.72;3.40;;;;;;;14.71;73.25;98522.53;1709626;84;21564;-71
2022/05/23 05:10:17;;;;;;;4.15;3.83;;;;;;;14.74;72.89;98520.75;1708616;84;20927;-70
2022/05/23 05:12:44;;;;;;;4.37;3.52;;;;;;;14.76;72.85;98524.53;1710104;84;21036;-72
2022/05/23 05:15:14;;;;;;;4.37;3.70;;;;;;;14.79;73.01;98518.75;1709205;84;21176;-69
2022/05/23 05:17:41;;;;;;;4.10;3.80;;;;;;;14.81;72.86;98517.48;1709905;84;21015;-70
2022/05/23 05:20:10;;;;;;;4.33;3.92;;;;;;;14.86;72.73;98520.04;1709210;84;21428;-71
2022/05/23 05:22:47;;;;;;;4.03;3.72;;;;;;;14.88;72.60;98520.12;1704932;82;20956;-72
2022/05/23 05:25:26;;;;;;;4.37;4.08;;;;;;;14.95;72.26;98520.04;1716959;83;22292;-72
2022/05/23 05:27:57;;;;;;;4.17;3.83;;;;;;;14.89;71.99;98529.77;1713584;83;21110;-71
2022/05/23 05:30:24;;;;;;;5.58;5.08;;;;;;;14.87;71.63;98532.37;1724359;82;20993;-74
2022/05/23 05:33:13;;;;;;;6.30;5.80;;;;;;;14.83;71.35;98532.80;1711782;83;21017;-71
2022/05/23 05:36:00;;;;;;;6.10;4.90;;;;;;;14.82;71.08;98531.19;1712369;83;21088;-70
2022/05/23 05:38:44;;;;;;;4.35;4.05;;;;;;;14.89;70.89;98532.99;1679388;83;20884;-74
2022/05/23 05:41:14;;;;;;;4.28;3.87;;;;;;;15.10;70.92;98535.23;1725675;83;21275;-74
2022/05/23 05:43:44;;;;;;;5.30;4.80;;;;;;;15.41;70.74;98533.75;1690770;83;20931;-72
2022/05/23 05:46:19;;;;;;;4.75;4.35;;;;;;;15.96;69.65;98528.66;1719346;83;20943;-73
2022/05/23 05:48:54;;;;;;;4.90;3.98;;;;;;;16.42;68.72;98531.20;1715408;83;21017;-69
2022/05/23 05:51:22;;;;;;;3.90;3.50;;;;;;;16.97;66.87;98533.90;1712969;82;21508;-71
2022/05/23 05:54:08;;;;;;;4.75;4.17;;;;;;;17.40;64.62;98532.19;1708977;83;21865;-71
2022/05/23 05:56:37;;;;;;;3.90;3.60;;;;;;;17.98;62.29;98536.09;1716369;83;20915;-72
2022/05/23 05:59:04;;;;;;;4.53;4.17;;;;;;;18.22;60.75;98532.25;1714583;83;21023;-73
2022/05/23 06:01:32;;;;;;;3.42;3.17;;;;;;;18.30;59.08;98534.52;1716467;83;21047;-65
2022/05/23 06:04:01;;;;;;;3.55;3.25;;;;;;;18.33;57.82;98536.73;1718614;83;21002;-75
2022/05/23 06:12:00;;;;;;;3.42;3.02;;;;;;;18.46;57.54;98537.77;1685058;83;21537;-75
2022/05/23 06:14:29;;;;;;;3.52;3.22;;;;;;;18.61;57.25;98541.83;1711165;83;21095;-73
2022/05/23 06:16:59;;;;;;;3.50;3.30;;;;;;;18.71;56.80;98537.42;1718939;83;21429;-76
2022/05/23 06:19:27;;;;;;;3.67;3.37;;;;;;;18.75;56.52;98537.20;1718451;83;21308;-76
2022/05/23 06:22:06;;;;;;;3.37;3.05;;;;;;;18.86;56.28;98535.48;1715507;83;20903;-77
2022/05/23 06:24:34;;;;;;;3.20;2.90;;;;;;;18.98;56.31;98536.23;1722840;82;21557;-78
2022/05/23 06:27:03;;;;;;;3.15;2.87;;;;;;;19.11;55.54;98538.03;1710983;83;20967;-77
2022/05/23 06:29:35;;;;;;;3.30;3.00;;;;;;;19.21;54.55;98537.91;1708375;83;20999;-78
2022/05/23 06:32:04;;;;;;;2.98;2.77;;;;;;;19.27;53.41;98541.76;1685976;83;21124;-78
2022/05/23 06:34:33;;;;;;;2.90;2.60;;;;;;;19.32;53.33;98545.08;1679390;84;21026;-77
2022/05/23 06:37:02;;;;;;;2.92;2.72;;;;;;;19.47;53.07;98544.78;1708287;83;21501;-69
2022/05/23 06:39:28;;;;;;;3.55;3.10;;;;;;;19.55;52.90;98540.28;1708303;83;20888;-78
2022/05/23 06:42:06;;;;;;;3.65;3.00;;;;;;;19.62;53.28;98542.80;1578679;88;20997;-73
2022/05/23 06:44:52;;;;;;;3.72;3.40;;;;;;;19.67;52.54;98546.91;1698228;83;22004;-73
2022/05/23 06:47:37;;;;;;;4.33;3.27;;;;;;;19.73;51.94;98547.27;1707005;83;20987;-73
2022/05/23 06:50:22;;;;;;;4.87;3.30;;;;;;;19.62;51.52;98550.91;1719834;82;20982;-72
2022/05/23 06:52:53;;;;;;;3.90;3.02;;;;;;;19.33;51.77;98557.48;1709010;83;20971;-75
2022/05/23 06:55:31;;;;;;;8.80;3.55;;;;;;;19.03;52.25;98555.17;1710510;83;21483;-74
2022/05/23 06:57:58;;;;;;;4.55;3.27;;;;;;;18.85;52.79;98559.47;1719686;83;21503;-73
2022/05/23 07:00:24;;;;;;;8.05;3.47;;;;;;;18.74;52.92;98564.41;1711486;83;21552;-72
2022/05/23 07:02:55;;;;;;;5.87;3.70;;;;;;;18.65;53.19;98561.28;1709402;83;21430;-75
2022/05/23 07:13:49;;;;;;;4.92;4.47;;;;;;;18.19;54.94;98577.66;1712364;83;20953;-71
2022/05/23 07:16:19;;;;;;;4.58;4.17;;;;;;;18.11;55.11;98575.34;1711673;83;21580;-71
2022/05/23 07:18:46;;;;;;;4.80;3.62;;;;;;;17.98;54.92;98579.14;1681269;83;21065;-71
2022/05/23 07:21:17;;;;;;;4.67;4.00;;;;;;;17.86;55.45;98579.69;1711499;83;20927;-70
2022/05/23 07:23:58;;;;;;;4.22;3.65;;;;;;;17.85;55.83;98578.08;1722405;83;21173;-70
2022/05/23 07:26:37;;;;;;;3.67;3.37;;;;;;;17.93;55.93;98581.73;1715236;83;21454;-70
2022/05/23 07:29:05;;;;;;;3.95;3.60;;;;;;;18.02;55.80;98582.16;1716654;83;20939;-71
2022/05/23 07:31:31;;;;;;;3.10;2.90;;;;;;;18.12;55.58;98585.86;1716538;83;20962;-69
2022/05/23 07:33:58;;;;;;;4.50;3.83;;;;;;;18.30;55.28;98580.28;1716741;83;21446;-69
2022/05/23 07:36:26;;;;;;;3.37;3.08;;;;;;;18.50;54.65;98573.16;1716602;83;21145;-69
2022/05/23 07:38:53;;;;;;;3.58;2.85;;;;;;;18.74;54.14;98563.88;1716741;83;20947;-71
2022/05/23 07:41:43;;;;;;;2.87;2.47;;;;;;;19.65;51.84;98568.77;1712808;83;21448;-70
2022/05/23 07:44:11;;;;;;;2.70;2.50;;;;;;;20.92;49.93;98564.16;1719630;83;20990;-68
2022/05/23 07:46:38;;;;;;;2.92;2.62;;;;;;;21.48;48.30;98558.63;1719555;83;20864;-68
2022/05/23 07:49:05;;;;;;;4.55;3.08;;;;;;;22.93;45.03;98557.96;1727556;83;21838;-70
2022/05/23 07:51:32;;;;;;;2.55;2.22;;;;;;;23.18;44.52;98554.67;1719423;83;20907;-69
2022/05/23 08:02:46;;;;;;;3.08;2.85;;;;;;;25.20;40.21;98550.94;1719380;83;21870;-70
2022/05/23 08:05:16;;;;;;;2.80;2.60;;;;;;;25.34;39.50;98561.97;1718648;83;21589;-69
2022/05/23 08:07:46;;;;;;;3.30;2.42;;;;;;;25.03;39.11;98569.58;1719478;83;21006;-69
2022/05/23 08:10:13;;;;;;;3.12;2.87;;;;;;;25.62;38.42;98572.86;1719584;83;20947;-70
2022/05/23 08:12:40;;;;;;;2.67;2.47;;;;;;;26.73;36.81;98570.02;1719565;83;21026;-69
2022/05/23 08:15:10;;;;;;;7.40;2.47;;;;;;;27.89;35.00;98565.26;1719532;83;21181;-70
2022/05/23 08:17:38;;;;;;;4.15;2.25;;;;;;;28.92;33.04;98562.70;1727682;82;20935;-70
2022/05/23 08:20:08;;;;;;;2.52;2.20;;;;;;;29.69;31.91;98558.51;1717157;83;20947;-69
2022/05/23 08:22:38;;;;;;;7.67;2.83;;;;;;;30.16;31.41;98567.05;1719378;83;20880;-69
2022/05/23 08:25:07;;;;;;;4.08;2.60;;;;;;;30.73;29.89;98574.64;1703026;83;20980;-68
2022/05/23 08:27:36;;;;;;;5.12;2.50;;;;;;;30.58;29.75;98563.00;1702865;84;20896;-69
2022/05/23 08:30:05;;;;;;;3.65;2.33;;;;;;;30.77;29.82;98564.05;1701127;84;21485;-70
2022/05/23 08:32:32;;;;;;;3.75;2.37;;;;;;;31.02;28.57;98564.65;1696038;84;20952;-69
2022/05/23 08:35:00;;;;;;;2.17;1.77;;;;;;;31.24;27.52;98557.31;1721635;83;21514;-69
2022/05/23 08:37:28;;;;;;;3.75;1.87;;;;;;;31.35;26.94;98557.20;1703819;82;20958;-69
2022/05/23 08:39:56;;;;;;;1.80;1.67;;;;;;;31.48;26.24;98551.54;1726057;83;21138;-69
2022/05/23 08:42:49;;;;;;;4.10;2.10;;;;;;;31.15;26.50;98555.98;1692308;84;20917;-69
2022/05/23 08:45:35;;;;;;;3.70;2.20;;;;;;;30.68;26.58;98553.66;1722392;83;21594;-68
2022/05/23 08:48:17;;;;;;;2.27;1.70;;;;;;;30.35;27.25;98553.31;1703760;82;21017;-68
2022/05/23 08:51:00;;;;;;;2.40;2.08;;;;;;;29.83;27.45;98555.66;1721859;83;21636;-70
2022/05/23 08:53:36;;;;;;;2.27;1.85;;;;;;;29.50;27.63;98555.75;1723343;83;21214;-69
2022/05/23 08:56:30;;;;;;;2.80;1.87;;;;;;;28.84;27.85;98552.50;1725958;83;20957;-70
2022/05/23 08:59:07;;;;;;;2.45;1.80;;;;;;;28.73;27.91;98553.33;1690590;84;20993;-71
2022/05/23 09:01:44;;;;;;;3.95;1.60;;;;;;;29.59;27.13;98562.09;1696294;83;21002;-70
2022/05/23 09:04:28;;;;;;;2.98;1.57;;;;;;;28.44;28.09;98563.83;1703655;82;21540;-69
2022/05/23 09:06:56;;;;;;;2.50;1.80;;;;;;;27.77;28.97;98560.84;1725968;83;21253;-70
2022/05/23 09:09:25;;;;;;;2.25;2.05;;;;;;;26.96;29.75;98568.30;1692390;84;20984;-69
2022/05/23 09:11:55;;;;;;;1.77;1.67;;;;;;;26.41;30.85;98571.31;1722972;83;21480;-69
2022/05/23 09:14:23;;;;;;;2.62;1.92;;;;;;;26.13;31.72;98574.43;1689920;84;20941;-71
2022/05/23 09:16:54;;;;;;;3.17;2.02;;;;;;;25.87;32.29;98577.18;1703593;82;20973;-69
2022/05/23 09:19:37;;;;;;;3.25;1.85;;;;;;;25.69;32.20;98582.03;1725959;83;21996;-69
2022/05/23 09:22:13;;;;;;;2.80;1.70;;;;;;;25.54;32.27;98581.66;1692364;84;20905;-70
2022/05/23 09:24:45;;;;;;;7.25;2.52;;;;;;;25.50;32.49;98580.59;1720676;81;21393;-70
2022/05/23 09:27:35;;;;;;;3.55;1.80;;;;;;;27.56;30.36;98567.81;1733037;82;21054;-70
2022/05/23 09:30:06;;;;;;;2.55;1.72;;;;;;;27.68;29.96;98573.60;1732924;82;20986;-72
2022/05/23 09:33:01;;;;;;;2.02;1.72;;;;;;;27.34;29.82;98571.76;1740434;82;21198;-69
2022/05/23 09:35:48;;;;;;;2.30;1.98;;;;;;;27.34;29.59;98571.20;1733068;82;20898;-70
2022/05/23 09:38:23;;;;;;;1.70;1.57;;;;;;;26.81;30.23;98577.56;1733098;82;32772;-71
2022/05/23 09:40:57;;;;;;;5.78;1.85;;;;;;;26.42;30.78;98576.22;1732592;82;21010;-69
2022/05/23 09:49:21;;;;;;;2.27;2.08;;;;;;;25.59;31.93;98584.32;1733064;82;21540;-69
2022/05/23 09:51:57;;;;;;;2.50;2.05;;;;;;;25.35;32.28;98583.98;1733715;81;20934;-70
2022/05/23 09:54:40;;;;;;;5.28;1.92;;;;;;;25.36;32.63;98585.63;1732798;82;20879;-70
2022/05/23 09:57:23;;;;;;;2.52;2.33;;;;;;;25.07;33.25;98587.79;1728687;82;20938;-69
2022/05/23 10:00:02;;;;;;;3.20;2.50;;;;;;;24.87;33.27;98574.33;1733767;81;21148;-69
2022/05/23 10:02:34;;;;;;;3.02;2.77;;;;;;;24.58;33.09;98581.05;1732952;82;20891;-69
2022/05/23 10:05:01;;;;;;;2.75;2.55;;;;;;;24.28;33.48;98580.42;1733029;82;20994;-70
2022/05/23 10:07:35;;;;;;;5.45;3.20;;;;;;;24.04;34.20;98587.03;1733697;81;21428;-71
2022/05/23 10:10:23;;;;;;;4.87;3.98;;;;;;;23.73;34.88;98583.63;1733002;82;20989;-69
2022/05/23 10:13:25;;;;;;;3.98;3.60;;;;;;;23.57;35.45;98577.96;1729094;82;21132;-70
2022/05/23 10:15:57;;;;;;;7.03;3.40;;;;;;;23.29;35.72;98588.03;1733555;81;20939;-69
2022/05/23 10:18:30;;;;;;;4.75;3.37;;;;;;;23.18;35.60;98589.13;1709950;82;20985;-71
2022/05/23 10:20:58;;;;;;;2.95;2.75;;;;;;;23.18;35.88;98588.59;1729987;82;21448;-71
2022/05/23 10:23:29;;;;;;;4.40;3.77;;;;;;;23.29;36.47;98590.22;1730229;82;20890;-70
2022/05/23 10:26:19;;;;;;;3.25;2.95;;;;;;;23.49;36.04;98584.52;1724567;83;21460;-69
2022/05/23 10:29:09;;;;;;;5.33;3.92;;;;;;;23.72;35.78;98580.66;1724267;83;21528;-69
2022/05/23 10:31:49;;;;;;;6.55;4.95;;;;;;;23.98;35.29;98582.73;1712800;83;20970;-70
2022/05/23 10:34:40;;;;;;;5.35;4.33;;;;;;;24.17;34.64;98570.72;1714835;83;22384;-69
2022/05/23 10:37:12;;;;;;;3.47;3.17;;;;;;;24.35;33.92;98575.52;1724339;83;20923;-68
2022/05/23 10:42:53;;;;;;;4.67;4.13;;;;;;;24.62;32.21;98569.61;1719709;83;20987;-68
2022/05/23 10:45:36;;;;;;;4.05;2.83;;;;;;;24.21;31.52;98575.31;1728315;81;20991;-70
2022/05/23 10:48:34;;;;;;;5.45;2.37;;;;;;;23.91;31.77;98576.77;1727515;83;21022;-69
2022/05/23 10:51:29;;;;;;;4.00;2.47;;;;;;;23.63;31.30;98571.98;1719686;83;20923;-69
2022/05/23 10:54:34;;;;;;;3.83;1.95;;;;;;;23.36;31.34;98569.56;1719913;83;21290;-70
2022/05/23 10:57:43;;;;;;;6.40;1.70;;;;;;;23.13;31.04;98572.86;1719251;83;20943;-68
2022/05/23 11:00:19;;;;;;;3.45;1.60;;;;;;;22.95;30.67;98576.13;1724340;83;20922;-70
2022/05/23 11:03:14;;;;;;;2.25;1.30;;;;;;;22.78;30.57;98571.52;1719844;83;20954;-70
2022/05/23 11:06:09;;;;;;;3.67;1.70;;;;;;;22.71;30.53;98571.23;1719264;83;20974;-69
2022/05/23 11:08:51;;;;;;;;;;;;;;;22.71;30.90;98571.77;1715662;83;21103;-68
2022/05/23 11:11:33;;;;;;;2.08;1.47;;;;;;;22.81;31.32;98575.05;1709704;83;20237;-69
2022/05/23 11:14:29;;;;;;;3.30;2.05;;;;;;;22.82;31.61;98570.70;1727975;81;20978;-70
2022/05/23 11:17:26;;;;;;;3.22;1.77;;;;;;;22.74;31.74;98572.06;1727357;82;21005;-69
2022/05/23 11:20:17;;;;;;;1.52;1.42;;;;;;;22.53;31.80;98570.91;1710601;83;21523;-70
2022/05/23 11:22:50;;;;;;;4.00;1.60;;;;;;;22.37;32.21;98568.72;1719476;83;21512;-70
2022/05/23 11:25:30;;;;;;;3.72;1.42;;;;;;;22.20;32.44;98570.03;1699534;82;20871;-68
2022/05/23 11:34:00;;;;;;;3.47;2.12;;;;;;;22.01;33.59;98572.41;1700775;83;20942;-68
2022/05/23 11:36:44;;;;;;;2.55;2.17;;;;;;;22.14;34.17;98568.67;1724483;83;21143;-69
2022/05/23 11:38:56;;;;;;;4.30;2.58;;;;;;;22.31;33.67;98565.75;1693915;83;20850;-70
2022/05/23 11:41:36;;;;;;;3.55;2.33;;;;;;;22.39;33.84;98565.22;1724537;83;20950;-70
2022/05/23 11:44:23;;;;;;;3.52;2.90;;;;;;;22.54;34.02;98554.94;1724468;83;21535;-68
2022/05/23 11:47:21;;;;;;;2.72;2.37;;;;;;;22.73;34.31;98554.72;1701071;83;20989;-68
2022/05/23 11:49:51;;;;;;;3.02;2.27;;;;;;;22.98;35.06;98554.70;1727695;82;21144;-68
2022/05/23 11:52:24;;;;;;;3.62;2.30;;;;;;;23.34;34.94;98552.75;1713259;83;20978;-71
2022/05/23 11:54:51;;;;;;;5.20;1.98;;;;;;;23.65;34.72;98555.68;1719433;83;21136;-69
2022/05/23 11:57:26;;;;;;;3.60;2.00;;;;;;;23.89;34.36;98557.22;1709896;83;20931;-70
2022/05/23 11:59:58;;;;;;;2.25;1.82;;;;;;;23.96;33.50;98547.67;1712374;83;21019;-69
2022/05/23 12:02:27;;;;;;;4.20;2.00;;;;;;;24.00;32.86;98556.62;1727651;82;21512;-71
2022/05/23 12:04:59;;;;;;;2.45;1.67;;;;;;;23.73;32.57;98552.40;1719789;83;20947;-68
2022/05/23 12:07:41;;;;;;;2.72;1.55;;;;;;;23.54;33.05;98554.11;1727684;83;21011;-70
2022/05/23 12:10:29;;;;;;;2.45;1.82;;;;;;;23.37;33.20;98555.48;1719571;83;20908;-70
2022/05/23 12:13:18;;;;;;;2.55;1.72;;;;;;;23.17;33.45;98554.97;1719948;83;20903;-69
2022/05/23 12:15:52;;;;;;;5.08;1.98;;;;;;;22.98;34.01;98557.42;1728290;81;20939;-69
2022/05/23 12:18:29;;;;;;;3.17;1.45;;;;;;;22.79;34.33;98559.04;1727437;82;20990;-70
2022/05/23 12:21:06;;;;;;;3.98;1.52;;;;;;;22.62;34.61;98562.53;1719705;83;20955;-69
2022/05/23 12:23:44;;;;;;;5.00;2.00;;;;;;;22.45;35.12;98566.02;1719432;83;21580;-69
2022/05/23 12:26:22;;;;;;;3.95;1.90;;;;;;;22.31;37.70;98566.28;1721378;82;21038;-69
2022/05/23 12:28:57;;;;;;;3.52;2.17;;;;;;;22.18;38.23;98568.97;1711546;83;21272;-70
2022/05/23 12:31:36;;;;;;;2.00;1.80;;;;;;;22.06;38.04;98566.48;1711681;83;20952;-68
2022/05/23 12:34:10;;;;;;;3.72;1.45;;;;;;;21.98;38.03;98565.63;1711543;83;20943;-69
2022/05/23 12:36:48;;;;;;;1.85;1.50;;;;;;;21.88;38.53;98562.89;1711640;83;21026;-68
2022/05/23 12:39:43;;;;;;;2.42;1.40;;;;;;;21.87;39.81;98557.75;1711664;83;20995;-71
2022/05/23 12:42:45;;;;;;;2.65;1.50;;;;;;;21.94;39.73;98559.67;1719766;83;21182;-69
2022/05/23 12:45:33;;;;;;;1.62;1.47;;;;;;;21.94;37.43;98558.31;1711538;83;21004;-68
2022/05/23 12:48:30;;;;;;;2.12;1.25;;;;;;;21.82;36.80;98557.14;1719724;83;20979;-69
2022/05/23 12:51:11;;;;;;;1.40;1.30;;;;;;;21.66;36.21;98558.71;1696557;83;20924;-70
2022/05/23 12:53:49;;;;;;;1.45;1.27;;;;;;;21.40;35.96;98553.70;1720563;82;20912;-70
2022/05/23 12:56:44;;;;;;;1.40;1.20;;;;;;;21.09;35.99;98551.33;1719840;83;21142;-69
2022/05/23 12:59:47;;;;;;;1.98;1.47;;;;;;;21.09;35.99;98551.33;1711545;83;21026;-69
2022/05/23 13:02:28;;;;;;;2.47;1.10;;;;;;;20.77;36.29;98547.30;1719865;83;21469;-69
2022/05/23 13:05:09;;;;;;;2.60;1.20;;;;;;;20.77;36.29;98547.30;1711656;83;21011;-68